Time;durP1;ratioP1;P1;durP2;ratioP2;P2;SDS_P1;SDS_P2;PMS_P1;PMS_P2;Temp;Humidity;BMP_temperature;BMP_pressure;BME280_temperature;BME280_humidity;BME280_pressure;Samples;Min_cycle;Max_cycle;Signal;HPM_P1;HPM_P2
2022/12/11 00:01:34;;;;;;;31.77;16.87;;;;;;;11.11;100.00;92785.88;5013734;28;20238;-78
2022/12/11 00:03:59;;;;;;;33.57;17.37;;;;;;;11.13;100.00;92773.25;5011160;28;20215;-78
2022/12/11 00:06:25;;;;;;;32.63;18.30;;;;;;;11.14;100.00;92796.69;5004172;28;20901;-76
2022/12/11 00:08:53;;;;;;;35.27;16.97;;;;;;;11.16;100.00;92796.41;4997766;28;20239;-77
2022/12/11 00:11:19;;;;;;;29.90;15.90;;;;;;;11.22;100.00;92753.22;5000667;28;20177;-77
2022/12/11 00:13:44;;;;;;;33.77;17.40;;;;;;;11.05;100.00;92750.09;4996317;28;20424;-79
2022/12/11 00:16:09;;;;;;;32.77;17.37;;;;;;;11.09;100.00;92756.38;5010557;28;20413;-79
2022/12/11 00:18:35;;;;;;;29.50;17.00;;;;;;;10.84;100.00;92744.84;5012058;28;20837;-79
2022/12/11 00:21:06;;;;;;;29.30;16.00;;;;;;;11.15;100.00;92771.94;5005381;28;20180;-79
2022/12/11 00:23:34;;;;;;;28.77;17.02;;;;;;;11.13;100.00;92796.94;5012105;28;20418;-79
2022/12/11 00:26:00;;;;;;;24.57;13.93;;;;;;;11.01;100.00;92730.59;5010592;28;20677;-79
2022/12/11 00:28:25;;;;;;;28.70;15.23;;;;;;;11.13;100.00;92776.66;5002846;28;20280;-78
2022/12/11 00:30:51;;;;;;;36.13;17.90;;;;;;;11.13;100.00;92773.25;5001338;28;20577;-78
2022/12/11 00:33:16;;;;;;;34.67;18.33;;;;;;;11.09;100.00;92737.97;5003754;28;20264;-78
2022/12/11 00:35:44;;;;;;;25.08;14.38;;;;;;;11.26;100.00;92797.19;5005084;28;20476;-79
2022/12/11 00:38:15;;;;;;;24.95;12.75;;;;;;;11.30;100.00;92742.16;4998257;28;20458;-79
2022/12/11 00:40:40;;;;;;;21.95;12.43;;;;;;;11.00;100.00;92713.22;5010520;28;20422;-78
2022/12/11 00:43:06;;;;;;;21.70;12.00;;;;;;;10.98;100.00;92703.00;5012168;28;20472;-79
2022/12/11 00:45:39;;;;;;;23.00;13.70;;;;;;;11.15;100.00;92753.50;5004017;28;20425;-79
2022/12/11 00:48:05;;;;;;;25.52;13.77;;;;;;;10.85;100.00;92751.69;5004099;28;20444;-78
2022/12/11 00:50:30;;;;;;;19.73;11.67;;;;;;;10.82;100.00;92704.03;5002531;28;20188;-78
2022/12/11 00:52:55;;;;;;;22.27;10.97;;;;;;;11.01;100.00;92741.13;5002312;28;20173;-79
2022/12/11 00:55:21;;;;;;;20.40;11.17;;;;;;;11.22;100.00;92761.91;4993708;28;20187;-78
2022/12/11 00:57:46;;;;;;;20.03;10.60;;;;;;;11.38;100.00;92740.81;5001505;28;20264;-79
2022/12/11 01:00:12;;;;;;;24.37;12.53;;;;;;;11.37;100.00;92761.09;5010724;28;20414;-78
2022/12/11 01:02:38;;;;;;;17.50;10.43;;;;;;;11.27;100.00;92750.56;5003292;28;20259;-79
2022/12/11 01:05:03;;;;;;;26.17;13.83;;;;;;;11.19;100.00;92709.78;5011423;28;20510;-79
2022/12/11 01:07:29;;;;;;;27.23;14.55;;;;;;;11.28;100.00;92723.19;5002945;28;20514;-79
2022/12/11 01:12:38;;;;;;;19.65;11.52;;;;;;;11.38;100.00;92769.78;4992460;28;20514;-78
2022/12/11 01:15:05;;;;;;;18.60;9.23;;;;;;;11.27;100.00;92754.00;5001936;28;20667;-79
2022/12/11 01:17:30;;;;;;;19.03;8.90;;;;;;;11.47;100.00;92765.53;4995018;28;20185;-79
2022/12/11 01:19:55;;;;;;;18.30;9.83;;;;;;;11.34;100.00;92757.13;5010208;28;20405;-79
2022/12/11 01:22:21;;;;;;;25.20;13.07;;;;;;;11.38;100.00;92788.22;5002899;28;20176;-79
2022/12/11 01:24:46;;;;;;;27.37;12.20;;;;;;;11.30;100.00;92766.63;4994973;28;20688;-77
2022/12/11 01:27:12;;;;;;;19.73;10.03;;;;;;;11.50;100.00;92784.22;4995503;28;20648;-77
2022/12/11 01:29:37;;;;;;;22.57;9.83;;;;;;;11.47;100.00;92728.66;5013021;28;20188;-77
2022/12/11 01:32:03;;;;;;;18.33;9.33;;;;;;;11.50;100.00;92709.69;4994629;28;20231;-77
2022/12/11 01:34:29;;;;;;;19.67;10.20;;;;;;;11.59;100.00;92727.28;4992930;28;20660;-77
2022/12/11 01:36:54;;;;;;;18.48;11.10;;;;;;;11.13;100.00;92741.66;4991602;28;20432;-77
2022/12/11 01:39:20;;;;;;;16.93;9.33;;;;;;;11.23;100.00;92746.91;5008807;28;20172;-79
2022/12/11 01:41:45;;;;;;;15.23;9.27;;;;;;;11.04;100.00;92687.97;5003846;28;20940;-77
2022/12/11 01:44:14;;;;;;;16.37;8.80;;;;;;;11.38;100.00;92749.50;5003624;28;20184;-77
2022/12/11 01:46:39;;;;;;;16.30;8.23;;;;;;;11.42;100.00;92720.75;5010908;28;20441;-77
2022/12/11 01:49:09;;;;;;;2.90;1.60;;;;;;;11.53;99.00;92675.69;5011311;28;20536;-77
2022/12/11 01:51:47;;;;;;;0.85;0.60;;;;;;;12.07;96.97;92685.44;4991828;28;20803;-77
2022/12/11 01:54:15;;;;;;;1.00;0.50;;;;;;;12.52;95.31;92709.97;5005491;28;20414;-77
2022/12/11 01:56:43;;;;;;;0.50;0.50;;;;;;;12.56;93.14;92663.47;4993892;28;20412;-77
2022/12/11 01:59:10;;;;;;;0.70;0.40;;;;;;;13.02;86.29;92685.75;5008983;28;20506;-77
2022/12/11 02:01:50;;;;;;;1.07;0.40;;;;;;;13.33;84.94;92680.97;4991181;28;20478;-77
2022/12/11 02:04:17;;;;;;;2.03;0.43;;;;;;;13.58;80.26;92724.81;5008632;28;20935;-78
2022/12/11 02:06:50;;;;;;;1.20;0.50;;;;;;;13.80;81.93;92746.28;4982130;28;20966;-78
2022/12/11 02:09:19;;;;;;;0.80;0.30;;;;;;;13.89;79.43;92723.41;4990360;28;20942;-77
2022/12/11 02:12:08;;;;;;;1.30;0.50;;;;;;;14.06;78.34;92725.59;4990933;28;20419;-77
2022/12/11 02:14:52;;;;;;;4.78;0.60;;;;;;;14.05;79.15;92737.25;5005202;28;20425;-77
2022/12/11 02:17:17;;;;;;;1.55;0.40;;;;;;;14.03;80.32;92717.41;5009240;28;20790;-77
2022/12/11 02:20:05;;;;;;;1.10;0.50;;;;;;;13.94;78.90;92673.09;4999299;28;20495;-78
2022/12/11 02:23:16;;;;;;;0.50;0.50;;;;;;;14.10;80.56;92657.00;5000351;28;20495;-78
2022/12/11 02:26:03;;;;;;;0.40;0.40;;;;;;;14.13;79.52;92656.44;4986783;28;20420;-78
2022/12/11 02:28:34;;;;;;;1.63;0.52;;;;;;;14.15;80.16;92654.31;4983930;28;20440;-78
2022/12/11 02:31:18;;;;;;;0.90;0.40;;;;;;;14.24;80.02;92652.59;5006558;28;20882;-79
2022/12/11 02:33:58;;;;;;;1.48;0.77;;;;;;;14.11;81.40;92634.78;5000436;28;20843;-78
2022/12/11 02:36:25;;;;;;;2.85;0.90;;;;;;;14.24;82.09;92636.72;4994787;28;20505;-78
2022/12/11 02:38:53;;;;;;;2.95;0.90;;;;;;;14.43;82.92;92663.97;5004749;28;20408;-78
2022/12/11 02:41:22;;;;;;;3.00;1.00;;;;;;;14.46;82.91;92667.88;5014132;28;20786;-78
2022/12/11 02:43:49;;;;;;;1.20;1.10;;;;;;;14.52;82.43;92678.13;5007932;28;20412;-79
2022/12/11 02:46:17;;;;;;;1.35;1.00;;;;;;;14.48;80.23;92652.50;5012190;28;20421;-79
2022/12/11 02:48:46;;;;;;;1.25;0.93;;;;;;;14.60;79.29;92647.56;4996099;28;20473;-79
2022/12/11 02:51:15;;;;;;;0.90;0.80;;;;;;;14.50;76.43;92656.44;5000064;28;20412;-78
2022/12/11 02:53:43;;;;;;;1.30;0.80;;;;;;;14.72;73.64;92627.47;5006524;28;20412;-79
2022/12/11 02:56:23;;;;;;;0.63;0.57;;;;;;;15.08;73.27;92709.00;5011580;28;20445;-79
2022/12/11 02:58:54;;;;;;;1.30;0.60;;;;;;;14.82;73.18;92652.22;5009029;28;20467;-78
2022/12/11 03:01:20;;;;;;;0.70;0.70;;;;;;;14.96;72.38;92692.78;4996341;28;20971;-78
2022/12/11 03:03:45;;;;;;;2.25;0.90;;;;;;;15.01;73.02;92684.75;5005157;28;20406;-78
2022/12/11 03:06:15;;;;;;;0.70;0.70;;;;;;;15.04;73.71;92697.41;5006422;28;20203;-78
2022/12/11 03:08:40;;;;;;;0.70;0.70;;;;;;;14.61;74.54;92612.06;5014297;28;20434;-78
2022/12/11 03:11:10;;;;;;;0.97;0.50;;;;;;;14.96;74.71;92682.19;4995320;28;20418;-78
2022/12/11 03:13:37;;;;;;;0.68;0.68;;;;;;;14.97;75.35;92681.88;4997809;28;20474;-78
2022/12/11 03:16:06;;;;;;;1.00;0.70;;;;;;;15.00;75.39;92676.00;5006432;28;20176;-78
2022/12/11 03:18:47;;;;;;;2.07;0.50;;;;;;;14.95;75.76;92681.41;4996595;28;20641;-78
2022/12/11 03:21:48;;;;;;;2.00;0.88;;;;;;;15.01;75.80;92674.94;4997677;28;20410;-78
2022/12/11 03:24:25;;;;;;;0.63;0.63;;;;;;;15.07;76.63;92681.72;4984428;28;20524;-78
2022/12/11 03:27:00;;;;;;;1.25;0.60;;;;;;;15.01;74.88;92650.31;4993783;28;20412;-78
2022/12/11 03:29:32;;;;;;;0.60;0.60;;;;;;;15.13;74.33;92658.56;5002595;28;20204;-78
2022/12/11 03:32:11;;;;;;;2.90;0.80;;;;;;;15.06;74.70;92674.84;5006236;28;20430;-78
2022/12/11 03:34:43;;;;;;;1.23;1.02;;;;;;;15.17;74.07;92694.00;5013508;28;20485;-78
2022/12/11 03:37:12;;;;;;;3.25;0.80;;;;;;;15.09;74.94;92686.72;5012795;28;20422;-78
2022/12/11 03:39:42;;;;;;;1.52;0.90;;;;;;;15.06;74.84;92684.66;5012211;28;20498;-78
2022/12/11 03:42:11;;;;;;;2.83;0.80;;;;;;;15.08;75.02;92706.34;5004641;28;20481;-78
2022/12/11 03:44:37;;;;;;;2.30;0.88;;;;;;;15.12;74.51;92699.41;5011768;28;20426;-78
2022/12/11 03:47:06;;;;;;;1.92;0.90;;;;;;;14.91;75.42;92714.06;5011518;28;20398;-78
2022/12/11 03:49:38;;;;;;;0.83;0.83;;;;;;;14.78;75.34;92710.28;5007599;28;20201;-79
2022/12/11 03:52:05;;;;;;;3.33;0.80;;;;;;;14.89;75.71;92735.53;5003851;28;20637;-79
2022/12/11 03:54:30;;;;;;;3.23;0.80;;;;;;;14.88;75.45;92743.75;5003759;28;20264;-79
2022/12/11 03:56:59;;;;;;;1.55;1.05;;;;;;;14.84;76.20;92762.09;5006360;28;21005;-78
2022/12/11 03:59:24;;;;;;;4.73;1.10;;;;;;;14.84;76.27;92751.50;5005436;28;20792;-78
2022/12/11 04:01:50;;;;;;;2.03;0.90;;;;;;;14.87;76.32;92753.59;5005204;28;20509;-79
2022/12/11 04:04:16;;;;;;;1.20;0.70;;;;;;;14.99;75.76;92776.97;5013980;28;20418;-78
2022/12/11 04:06:41;;;;;;;1.60;0.90;;;;;;;14.89;75.52;92772.63;4997766;28;20434;-79
2022/12/11 04:09:07;;;;;;;0.87;0.80;;;;;;;14.64;76.56;92760.53;4993704;28;21298;-78
2022/12/11 04:11:35;;;;;;;1.23;0.80;;;;;;;14.57;76.58;92731.00;4986099;28;20495;-78
2022/12/11 04:16:51;;;;;;;1.42;0.80;;;;;;;14.64;76.11;92765.84;5002767;28;20455;-78
2022/12/11 04:24:48;;;;;;;1.77;1.13;;;;;;;14.83;76.47;92810.06;4999732;28;20408;-78
2022/12/11 04:27:13;;;;;;;4.10;0.90;;;;;;;14.97;75.01;92808.25;4999735;28;20899;-77
2022/12/11 04:29:39;;;;;;;1.77;1.00;;;;;;;15.03;75.49;92823.03;5007179;28;20463;-76
2022/12/11 04:32:04;;;;;;;2.60;1.20;;;;;;;14.91;76.65;92807.56;5011230;28;20441;-77
2022/12/11 04:34:29;;;;;;;2.85;1.20;;;;;;;14.98;75.29;92810.63;5011334;28;20410;-77
2022/12/11 04:36:55;;;;;;;2.40;1.17;;;;;;;15.05;76.11;92826.16;5002388;28;20963;-77
2022/12/11 04:39:20;;;;;;;2.20;1.23;;;;;;;15.12;76.11;92852.31;5011274;28;20414;-77
2022/12/11 04:41:45;;;;;;;3.23;1.17;;;;;;;14.87;74.07;92825.13;4999006;28;20483;-77
2022/12/11 04:44:11;;;;;;;2.10;0.87;;;;;;;15.05;73.38;92837.53;4990953;28;20415;-77
2022/12/11 04:46:36;;;;;;;2.13;0.80;;;;;;;15.00;71.18;92813.00;5006724;28;20909;-77
2022/12/11 04:49:02;;;;;;;2.15;1.17;;;;;;;15.27;70.68;92825.56;4999194;28;20527;-77
2022/12/11 04:51:28;;;;;;;2.42;0.80;;;;;;;15.30;68.38;92854.16;5003099;28;20422;-78
2022/12/11 04:53:54;;;;;;;3.33;1.10;;;;;;;15.38;68.48;92853.50;4992737;28;20422;-77
2022/12/11 04:56:20;;;;;;;2.00;0.77;;;;;;;15.47;68.38;92852.56;4989828;28;20474;-78
2022/12/11 04:58:47;;;;;;;1.50;0.68;;;;;;;15.19;69.55;92832.31;4999949;28;20431;-78
2022/12/11 05:01:18;;;;;;;1.27;1.05;;;;;;;15.39;68.37;92844.47;4995312;28;20414;-77
2022/12/11 05:03:44;;;;;;;5.50;1.90;;;;;;;15.30;69.29;92823.13;5002102;28;20421;-78
2022/12/11 05:06:10;;;;;;;1.02;0.77;;;;;;;15.44;67.35;92828.47;5009025;28;20411;-77
2022/12/11 05:08:39;;;;;;;3.15;1.63;;;;;;;15.30;67.86;92840.91;4994139;28;20444;-78
2022/12/11 05:11:06;;;;;;;2.17;1.00;;;;;;;15.37;69.03;92836.00;5005483;28;21226;-78
2022/12/11 05:13:32;;;;;;;4.30;1.75;;;;;;;15.32;69.80;92828.13;5004093;28;20423;-78
2022/12/11 05:15:58;;;;;;;2.60;1.10;;;;;;;15.04;69.79;92796.25;5001648;28;20422;-77
2022/12/11 05:18:24;;;;;;;1.77;1.13;;;;;;;15.31;70.46;92824.69;4999644;28;20426;-77
2022/12/11 05:21:02;;;;;;;3.97;1.25;;;;;;;15.33;70.78;92825.19;4998338;28;20411;-78
2022/12/11 05:23:28;;;;;;;6.43;1.17;;;;;;;15.34;71.34;92818.81;4990670;28;20416;-78
2022/12/11 05:25:56;;;;;;;3.10;1.20;;;;;;;15.18;70.95;92800.78;4990775;28;20752;-78
2022/12/11 05:28:23;;;;;;;3.08;1.45;;;;;;;15.13;72.20;92822.88;5004922;28;20464;-77
2022/12/11 05:30:57;;;;;;;2.67;1.20;;;;;;;14.98;72.43;92813.28;5011401;28;20766;-78
2022/12/11 05:33:23;;;;;;;2.33;1.13;;;;;;;15.00;72.78;92807.69;4989270;28;20947;-77
2022/12/11 05:35:49;;;;;;;3.45;1.23;;;;;;;15.06;71.61;92806.53;4994333;28;20426;-78
2022/12/11 05:38:14;;;;;;;3.33;1.07;;;;;;;15.03;72.53;92826.47;4993114;28;20413;-78
2022/12/11 05:40:40;;;;;;;2.73;1.57;;;;;;;15.08;72.28;92822.94;5004453;28;20422;-78
2022/12/11 05:43:05;;;;;;;2.43;1.27;;;;;;;15.02;72.75;92821.44;4997975;28;20476;-77
2022/12/11 05:45:30;;;;;;;4.82;1.27;;;;;;;15.03;73.31;92809.78;5004130;28;20402;-78
2022/12/11 05:47:56;;;;;;;5.85;1.60;;;;;;;15.07;74.06;92822.16;5006758;28;20410;-78
2022/12/11 05:50:21;;;;;;;5.07;1.50;;;;;;;14.94;74.85;92824.75;5008863;28;20468;-78
2022/12/11 05:52:47;;;;;;;4.33;1.90;;;;;;;14.75;75.08;92787.66;5003453;28;20424;-78
2022/12/11 05:55:12;;;;;;;2.17;1.05;;;;;;;15.05;72.76;92813.69;4994852;28;20936;-78
2022/12/11 05:57:38;;;;;;;3.80;1.70;;;;;;;15.07;73.33;92824.81;5003791;28;20939;-77
2022/12/11 06:00:05;;;;;;;2.23;1.63;;;;;;;15.12;72.95;92804.63;5000584;28;20181;-78
2022/12/11 06:02:33;;;;;;;7.67;2.63;;;;;;;15.10;74.01;92799.59;5004233;28;20427;-78
2022/12/11 06:04:59;;;;;;;2.87;1.50;;;;;;;15.04;72.92;92798.09;4996858;28;20420;-78
2022/12/11 06:07:24;;;;;;;9.33;1.90;;;;;;;15.11;74.07;92798.53;4996720;28;20256;-78
2022/12/11 06:09:50;;;;;;;3.93;2.13;;;;;;;15.12;73.51;92801.97;5002996;28;20447;-78
2022/12/11 06:12:15;;;;;;;4.15;2.42;;;;;;;15.08;74.10;92815.00;5003595;28;20455;-77
2022/12/11 06:14:40;;;;;;;4.15;1.70;;;;;;;15.18;73.59;92801.59;5000910;28;20416;-77
2022/12/11 06:17:06;;;;;;;4.72;1.85;;;;;;;15.11;73.22;92819.72;5010129;28;20418;-77
2022/12/11 06:19:31;;;;;;;4.30;1.93;;;;;;;14.96;73.01;92804.06;5003210;28;20410;-77
2022/12/11 06:21:57;;;;;;;3.80;1.30;;;;;;;15.18;70.27;92820.13;5014030;28;20413;-77
2022/12/11 06:24:22;;;;;;;2.60;1.10;;;;;;;15.24;68.61;92826.91;5002112;28;20915;-78
2022/12/11 06:26:47;;;;;;;1.17;1.00;;;;;;;15.16;68.50;92800.28;4994611;28;20478;-78
2022/12/11 06:29:13;;;;;;;5.60;1.50;;;;;;;15.40;70.15;92838.84;5002004;28;20434;-77
2022/12/11 06:31:38;;;;;;;5.00;2.07;;;;;;;15.26;71.18;92829.28;5010844;28;20938;-78
2022/12/11 06:34:04;;;;;;;7.57;3.55;;;;;;;15.53;72.42;92815.34;5008353;28;20448;-77
2022/12/11 06:36:30;;;;;;;2.40;1.23;;;;;;;15.28;69.13;92817.34;5011604;28;20414;-77
2022/12/11 06:38:55;;;;;;;2.40;0.90;;;;;;;15.58;69.36;92844.44;5011705;28;20422;-77
2022/12/11 06:41:21;;;;;;;1.42;0.70;;;;;;;15.72;66.80;92824.06;5014244;28;20429;-77
2022/12/11 06:43:46;;;;;;;2.97;0.90;;;;;;;15.84;65.56;92850.88;5014070;28;20769;-77
2022/12/11 06:46:14;;;;;;;3.50;1.10;;;;;;;15.90;66.09;92876.28;5005958;28;20441;-77
2022/12/11 06:48:41;;;;;;;2.63;0.70;;;;;;;15.97;65.79;92881.97;5008932;28;20203;-78
2022/12/11 06:51:08;;;;;;;1.77;0.80;;;;;;;15.99;65.83;92833.91;4998477;28;20490;-76
2022/12/11 06:53:34;;;;;;;3.40;1.40;;;;;;;15.93;66.94;92867.69;4988065;28;20458;-76
2022/12/11 06:56:18;;;;;;;4.55;1.50;;;;;;;15.95;69.05;92827.63;4996355;28;20188;-76
2022/12/11 06:58:43;;;;;;;2.58;1.63;;;;;;;15.89;69.60;92852.69;5009747;28;20683;-77
2022/12/11 07:01:18;;;;;;;1.83;0.80;;;;;;;15.83;66.86;92851.97;4993030;28;20428;-77
2022/12/11 07:03:44;;;;;;;1.77;0.90;;;;;;;15.78;66.90;92868.75;4993241;28;20408;-76
2022/12/11 07:06:09;;;;;;;1.07;0.70;;;;;;;15.80;67.36;92858.66;4998490;28;20184;-75
2022/12/11 07:08:35;;;;;;;2.03;1.13;;;;;;;15.83;67.29;92865.22;4996055;28;20263;-74
2022/12/11 07:11:09;;;;;;;1.43;1.00;;;;;;;15.78;68.41;92873.28;4994203;28;20648;-75
2022/12/11 07:13:35;;;;;;;2.10;1.10;;;;;;;15.82;67.18;92882.25;4994192;28;20266;-75
2022/12/11 07:16:03;;;;;;;1.90;1.10;;;;;;;15.82;68.92;92876.94;5000625;28;20342;-76
2022/12/11 07:18:29;;;;;;;3.73;1.23;;;;;;;15.79;70.22;92883.59;5013702;28;20172;-75
2022/12/11 07:20:57;;;;;;;3.40;1.90;;;;;;;15.76;71.13;92859.50;5013566;28;20276;-75
2022/12/11 07:23:23;;;;;;;2.67;1.27;;;;;;;15.74;70.93;92865.09;5013532;28;20249;-74
2022/12/11 07:25:48;;;;;;;6.80;3.03;;;;;;;15.79;71.60;92873.00;5014035;28;20176;-76
2022/12/11 07:28:14;;;;;;;6.43;3.20;;;;;;;15.74;72.42;92883.69;5006986;28;20674;-76
2022/12/11 07:30:39;;;;;;;6.53;2.53;;;;;;;15.70;73.29;92872.09;4994184;28;20267;-77
2022/12/11 07:33:05;;;;;;;4.43;2.00;;;;;;;15.65;73.24;92877.50;5001137;28;20228;-76
2022/12/11 07:35:33;;;;;;;7.33;2.60;;;;;;;15.66;74.69;92878.25;5008853;28;20672;-76
2022/12/11 07:37:58;;;;;;;6.97;2.90;;;;;;;15.67;74.54;92893.88;4993494;28;20671;-76
2022/12/11 07:40:24;;;;;;;4.83;2.63;;;;;;;15.63;75.52;92890.25;5002213;28;20185;-76
2022/12/11 07:42:49;;;;;;;7.27;2.67;;;;;;;15.52;76.17;92888.78;4994051;28;20185;-76
2022/12/11 07:45:15;;;;;;;5.57;1.97;;;;;;;15.47;76.08;92860.50;5003068;28;20565;-76
2022/12/11 07:47:40;;;;;;;5.33;1.20;;;;;;;15.42;71.99;92913.59;5006626;28;20188;-76
2022/12/11 07:50:06;;;;;;;2.13;1.10;;;;;;;15.36;68.48;92874.19;5005140;28;20200;-76
2022/12/11 07:52:32;;;;;;;2.37;0.97;;;;;;;15.52;69.63;92915.31;4996999;28;20265;-76
2022/12/11 07:54:58;;;;;;;3.43;2.07;;;;;;;15.64;70.47;92909.59;5001436;28;20629;-77
2022/12/11 07:57:23;;;;;;;1.40;0.80;;;;;;;15.84;66.41;92922.50;4993006;28;20181;-76
2022/12/11 07:59:49;;;;;;;4.00;0.83;;;;;;;15.94;67.20;92881.75;5005070;28;20199;-76
2022/12/11 08:02:15;;;;;;;1.60;0.73;;;;;;;15.90;67.72;92913.41;5013296;28;20631;-76
2022/12/11 08:04:40;;;;;;;8.87;3.20;;;;;;;15.89;71.64;92961.47;5000259;28;20196;-77
2022/12/11 08:07:06;;;;;;;1.47;0.90;;;;;;;15.84;65.13;92925.97;4996136;28;20184;-77
2022/12/11 08:09:31;;;;;;;6.53;3.17;;;;;;;15.90;70.15;92918.72;4992050;28;20232;-75
2022/12/11 08:11:56;;;;;;;6.97;3.07;;;;;;;15.87;72.47;92873.41;5002154;28;20181;-77
2022/12/11 08:14:22;;;;;;;2.50;0.77;;;;;;;15.92;68.15;92897.19;4995500;28;20605;-77
2022/12/11 08:16:47;;;;;;;0.90;0.90;;;;;;;15.84;68.52;92906.59;5000610;28;20177;-77
2022/12/11 08:19:13;;;;;;;2.93;1.83;;;;;;;15.91;70.05;92917.66;5008260;28;20616;-77
2022/12/11 08:21:39;;;;;;;5.47;1.60;;;;;;;15.94;71.83;92948.09;5010881;28;20187;-78
2022/12/11 08:24:05;;;;;;;3.20;1.60;;;;;;;15.82;70.19;92940.63;5004349;28;20216;-78
2022/12/11 08:26:30;;;;;;;1.67;0.97;;;;;;;15.87;70.05;92931.78;5000118;28;20204;-77
2022/12/11 08:28:58;;;;;;;4.07;1.20;;;;;;;15.75;68.17;92922.38;5011512;28;20239;-77
2022/12/11 08:31:24;;;;;;;1.33;1.00;;;;;;;15.85;67.98;92947.97;5004432;28;20183;-77
2022/12/11 08:33:50;;;;;;;2.17;0.70;;;;;;;15.89;69.08;92943.69;4992442;28;20228;-75
2022/12/11 08:36:18;;;;;;;2.37;1.00;;;;;;;15.98;69.11;92944.59;5000549;28;20214;-76
2022/12/11 08:38:45;;;;;;;5.10;2.93;;;;;;;15.99;71.48;92919.63;4988983;28;20176;-75
2022/12/11 08:41:19;;;;;;;5.50;2.30;;;;;;;15.88;71.91;92922.75;4984540;28;20636;-75
2022/12/11 08:43:44;;;;;;;6.37;2.43;;;;;;;15.75;73.54;92917.09;4980564;28;20271;-76
2022/12/11 08:46:11;;;;;;;12.53;4.63;;;;;;;15.82;75.69;92920.19;4980439;28;20267;-76
2022/12/11 08:48:39;;;;;;;5.90;2.20;;;;;;;15.88;76.28;92936.00;4981751;28;20205;-76
2022/12/11 08:51:06;;;;;;;8.77;3.03;;;;;;;15.82;76.42;92932.66;4988202;28;20189;-76
2022/12/11 08:53:32;;;;;;;12.07;7.23;;;;;;;15.73;79.12;92927.22;4982685;28;20181;-76
2022/12/11 08:56:02;;;;;;;9.47;4.33;;;;;;;15.64;81.50;92928.97;4987136;28;20268;-78
2022/12/11 08:58:28;;;;;;;8.25;4.88;;;;;;;15.48;82.31;92915.09;4990261;28;20633;-79
2022/12/11 09:00:54;;;;;;;6.07;2.10;;;;;;;15.47;83.49;92923.34;4986648;28;20181;-79
2022/12/11 09:03:21;;;;;;;5.30;1.67;;;;;;;15.15;85.46;92900.22;4987076;28;20993;-79
2022/12/11 09:05:46;;;;;;;7.17;1.80;;;;;;;15.31;84.85;92893.59;4983568;28;20188;-79
2022/12/11 09:08:11;;;;;;;2.73;1.70;;;;;;;15.33;84.27;92894.13;4988065;28;20189;-78
2022/12/11 09:10:37;;;;;;;4.93;1.90;;;;;;;15.78;82.52;92874.06;4984701;28;20589;-78
2022/12/11 09:13:04;;;;;;;7.17;2.23;;;;;;;16.55;80.84;92889.38;4992609;28;20184;-78
2022/12/11 09:15:31;;;;;;;3.70;1.37;;;;;;;17.02;77.15;92906.00;4992642;28;20615;-78
2022/12/11 09:17:56;;;;;;;1.50;1.08;;;;;;;17.30;71.51;92910.16;4989553;28;20185;-79
2022/12/11 09:20:21;;;;;;;7.07;1.17;;;;;;;16.88;67.79;92858.19;4985753;28;20181;-76
2022/12/11 09:22:47;;;;;;;4.03;1.42;;;;;;;17.37;72.10;92899.91;4980715;28;20182;-78
2022/12/11 09:25:12;;;;;;;2.00;1.15;;;;;;;17.51;66.22;92905.97;4980524;28;20173;-78
2022/12/11 09:27:38;;;;;;;4.88;1.45;;;;;;;17.69;65.77;92891.72;4979426;28;20272;-78
2022/12/11 09:30:04;;;;;;;3.95;1.15;;;;;;;17.76;65.01;92904.59;4990968;28;20208;-78
2022/12/11 09:32:30;;;;;;;3.63;1.23;;;;;;;17.91;65.95;92876.81;4983348;28;20256;-79
2022/12/11 09:34:55;;;;;;;3.67;1.98;;;;;;;17.92;64.57;92905.03;4987568;28;20173;-79
2022/12/11 09:37:20;;;;;;;6.28;2.75;;;;;;;18.06;65.28;92903.09;4993558;28;20252;-79
2022/12/11 09:39:46;;;;;;;2.03;1.20;;;;;;;18.00;65.97;92891.75;4988561;28;20173;-78
2022/12/11 09:42:31;;;;;;;3.88;2.13;;;;;;;17.69;67.67;92896.28;4985955;28;20181;-79
2022/12/11 09:45:00;;;;;;;2.33;1.52;;;;;;;17.52;68.58;92870.28;4986782;28;20197;-79
2022/12/11 09:47:33;;;;;;;3.83;1.67;;;;;;;17.82;69.08;92881.31;4995330;28;20195;-78
2022/12/11 09:50:11;;;;;;;4.38;1.30;;;;;;;17.76;66.75;92871.88;4995950;28;20204;-79
2022/12/11 09:53:18;;;;;;;3.28;1.50;;;;;;;17.71;69.00;92881.59;4996821;28;20673;-80
2022/12/11 09:55:54;;;;;;;4.47;1.30;;;;;;;18.02;67.97;92886.13;4959856;28;20273;-77
2022/12/11 09:58:40;;;;;;;3.25;1.90;;;;;;;18.44;67.52;92896.22;4992278;28;20188;-79
2022/12/11 10:01:47;;;;;;;7.88;2.88;;;;;;;18.55;66.60;92887.94;4995339;28;20259;-78
2022/12/11 10:04:40;;;;;;;3.00;1.60;;;;;;;18.60;66.33;92883.28;4991304;28;20203;-78
2022/12/11 10:07:22;;;;;;;1.98;1.42;;;;;;;18.53;67.41;92882.13;4991381;28;20635;-78
2022/12/11 10:10:11;;;;;;;3.72;1.48;;;;;;;18.09;66.92;92849.19;4999160;28;20607;-79
2022/12/11 10:12:45;;;;;;;2.92;1.48;;;;;;;18.10;67.01;92877.41;4993321;28;20186;-78
2022/12/11 10:15:39;;;;;;;3.88;1.30;;;;;;;17.98;67.08;92877.19;4986721;28;20268;-76
2022/12/11 10:18:12;;;;;;;3.28;1.52;;;;;;;17.73;67.42;92876.72;4980882;28;20176;-75
2022/12/11 10:20:39;;;;;;;5.18;1.27;;;;;;;17.62;66.44;92893.25;4987639;28;20204;-77
2022/12/11 10:23:17;;;;;;;1.85;1.10;;;;;;;17.18;67.53;92889.44;4984073;28;20866;-79
2022/12/11 10:25:55;;;;;;;1.52;1.02;;;;;;;16.85;69.42;92874.72;4979917;28;20189;-80
2022/12/11 10:28:20;;;;;;;3.92;2.10;;;;;;;16.82;72.21;92878.75;4982740;28;20200;-79
2022/12/11 10:31:03;;;;;;;2.35;1.35;;;;;;;16.68;71.95;92887.84;4977468;28;20185;-79
2022/12/11 10:33:39;;;;;;;1.83;1.45;;;;;;;16.66;72.96;92888.13;4994442;28;20232;-79
2022/12/11 10:36:08;;;;;;;3.58;1.60;;;;;;;16.34;76.03;92878.38;4989418;28;20176;-79
2022/12/11 10:38:39;;;;;;;3.70;1.40;;;;;;;16.22;77.97;92870.91;4989693;28;20169;-77
2022/12/11 10:41:10;;;;;;;1.10;1.00;;;;;;;16.36;76.57;92860.25;4978635;28;20189;-77
2022/12/11 10:43:45;;;;;;;2.03;1.50;;;;;;;16.58;76.84;92871.00;4984415;28;20264;-77
2022/12/11 10:46:18;;;;;;;4.37;1.40;;;;;;;16.67;76.68;92862.34;4982076;28;20303;-78
2022/12/11 10:49:24;;;;;;;5.10;2.20;;;;;;;16.90;75.87;92866.66;4987829;28;20236;-80
2022/12/11 10:51:52;;;;;;;5.78;2.35;;;;;;;17.07;76.10;92848.19;4969391;28;20228;-78
2022/12/11 10:54:39;;;;;;;3.90;2.47;;;;;;;17.32;74.25;92836.97;4991277;28;20672;-79
2022/12/11 10:57:07;;;;;;;5.40;2.47;;;;;;;17.24;73.37;92805.00;4990528;28;20185;-78
2022/12/11 10:59:36;;;;;;;6.43;3.15;;;;;;;17.66;73.11;92839.09;4991078;28;20177;-79
2022/12/11 11:02:04;;;;;;;3.65;2.30;;;;;;;17.83;71.53;92845.63;5007490;28;20239;-80
2022/12/11 11:04:34;;;;;;;3.78;2.08;;;;;;;17.67;70.12;92834.56;5003606;28;20169;-78
2022/12/11 11:07:11;;;;;;;4.50;2.45;;;;;;;17.63;69.87;92821.09;4990821;28;20656;-80
2022/12/11 11:09:38;;;;;;;2.30;1.67;;;;;;;17.73;70.77;92838.66;4992849;28;20290;-79
2022/12/11 11:12:16;;;;;;;4.25;2.40;;;;;;;17.59;70.69;92845.91;4983475;28;20185;-79
2022/12/11 11:14:41;;;;;;;6.10;1.90;;;;;;;17.46;71.62;92846.78;4987489;28;20185;-79
2022/12/11 11:17:14;;;;;;;5.80;2.90;;;;;;;17.16;72.78;92819.00;4985857;28;20548;-78
2022/12/11 11:19:40;;;;;;;4.72;2.58;;;;;;;17.22;73.65;92836.41;4987430;28;20181;-77
2022/12/11 11:22:14;;;;;;;22.63;19.13;;;;;;;17.04;74.13;92835.50;5007603;28;20235;-79
2022/12/11 11:24:59;;;;;;;12.98;10.15;;;;;;;16.65;74.86;92782.16;4985456;28;20189;-77
2022/12/11 11:27:34;;;;;;;5.93;2.25;;;;;;;16.79;75.02;92806.81;4982659;28;20209;-78
2022/12/11 11:30:03;;;;;;;4.83;2.03;;;;;;;16.58;74.60;92833.81;4987615;28;20212;-77
2022/12/11 11:32:35;;;;;;;6.00;2.33;;;;;;;16.63;75.24;92819.66;4985752;28;20236;-79
2022/12/11 11:35:16;;;;;;;3.55;1.30;;;;;;;16.70;74.77;92832.53;4993664;28;20191;-79
2022/12/11 11:37:46;;;;;;;5.03;1.75;;;;;;;16.63;74.88;92830.28;5002053;28;20197;-79
2022/12/11 11:40:41;;;;;;;4.40;1.50;;;;;;;16.64;75.43;92831.06;5009459;28;20169;-79
2022/12/11 11:43:31;;;;;;;1.38;1.27;;;;;;;16.68;73.40;92830.19;4986045;28;20193;-79
2022/12/11 11:46:22;;;;;;;2.77;1.67;;;;;;;16.61;73.60;92816.50;4989077;28;20541;-78
2022/12/11 11:49:06;;;;;;;2.92;1.30;;;;;;;16.66;73.55;92827.03;4990560;28;20188;-77
2022/12/11 11:51:45;;;;;;;4.57;1.60;;;;;;;16.71;74.16;92818.94;4988340;28;20218;-78